ADDS METAR Data INFO
IDs: Format: Raw Decoded Include TAF

Data at: 1847 UTC 17 Oct 2017

KOPF 171753Z 07010KT 10SM SCT032 SCT060 BKN075 31/23 A2998 RMK AO2 SLP153 T03110233 10311 20250 58017
KOPF 171653Z 09007KT 10SM SCT035 31/23 A3000 RMK AO2 SLP161 T03110233
KOPF 171553Z VRB05KT 10SM FEW047 FEW065 SCT095 31/23 A3002 RMK AO2 SLP166 T03060228
KOPF 171453Z VRB04KT 10SM CLR 30/23 A3003 RMK AO2 SLP169 T03000233 51015
KOPF 171353Z 02006KT 10SM CLR 29/24 A3002 RMK AO2 SLP167 T02890239
KOPF 171253Z 01004KT 10SM CLR 27/24 A3001 RMK AO2 SLP162 T02720239
KOPF 171153Z 36004KT 10SM CLR 25/23 A2999 RMK AO2 SLP155 70036 T02500233 10256 20233 53018
KOPF 171053Z 36005KT 10SM CLR 24/23 A2997 RMK AO2 SLP149 T02440233
KOPF 170953Z AUTO 00000KT 10SM CLR 24/23 A2995 RMK AO2 SLP142 T02440233
KOPF 170853Z AUTO 00000KT 10SM CLR 24/23 A2994 RMK AO2 SLP138 T02440233 56010
KOPF 170753Z AUTO 00000KT 10SM FEW022 24/23 A2994 RMK AO2 SLP139 T02440233
KOPF 170653Z AUTO 00000KT 10SM CLR 25/24 A2995 RMK AO2 SLP143 T02500239
KOPF 170553Z AUTO 00000KT 10SM CLR 25/23 A2997 RMK AO2 SLP148 T02500233 10267 20244 58004
KOPF 170453Z AUTO 00000KT 10SM CLR 25/23 A2997 RMK AO2 SLP150 T02500233 403170244
KOPF 170353Z AUTO 09003KT 10SM CLR 26/23 A2998 RMK AO2 SLP153 T02560233
KOPF 170253Z 09003KT 10SM CLR 26/23 A2998 RMK AO2 SLP152 T02610233 51018
KOPF 170153Z 09003KT 10SM CLR 26/24 A2997 RMK AO2 SLP149 T02610239
KOPF 170053Z 11003KT 10SM CLR 27/24 A2995 RMK AO2 SLP143 T02670239
KOPF 162353Z 10005KT 10SM CLR 27/24 A2993 RMK AO2 SLP135 60036 T02670239 10317 20250 53006
KOPF 162253Z 10007KT 10SM CLR 27/24 A2992 RMK AO2 SLP131 T02720239
KOPF 162153Z 12007KT 10SM CLR 29/23 A2990 RMK AO2 SLP127 T02890233
KOPF 162053Z 08003KT 10SM FEW080 28/25 A2991 RMK AO2 RAE27 SLP128 P0002 60036 T02830250 58002
KOPF 162000Z 26005KT 7SM RA SCT023 BKN060 OVC100 26/25 A2992 RMK AO2 P0001 T02560250
KOPF 161953Z 27007KT 3SM RA BR SCT021 BKN029 OVC075 25/25 A2992 RMK AO2 RAB13 TSB30E45 SLP132 P0034 T02500250
KOPF 161951Z 26009KT 3SM RA BR SCT021 BKN029 OVC070 25/25 A2992 RMK AO2 RAB13 TSB30E45 P0033
KOPF 161930Z 27011KT 3SM +TSRA BR FEW020 BKN028 OVC039 26/24 A2993 RMK AO2 RAB13 TSB30 P0011 T02560244
KOPF 161853Z 07009KT 10SM BKN035 OVC049 29/23 A2992 RMK AO2 SLP131 T02940228
KOPF 161753Z 10SM SCT037 31/23 A2994 RMK AO2 SLP138 T03110233 10317 20261 58023
KOPF 161653Z 09008KT 10SM FEW030 SCT037 BKN055 31/24 A2997 RMK AO2 SLP150 T03060239
KOPF 161553Z 11010KT 10SM FEW032 SCT039 BKN049 28/23 A3000 RMK AO2 SLP161 T02830233
KOPF 161453Z 00000KT 10SM FEW033 29/23 A3001 RMK AO2 SLP161 T02940228 50011
KOPF 161353Z 09003KT 10SM FEW022 29/24 A3001 RMK AO2 SLP162 T02890239
KOPF 161253Z 34003KT 10SM CLR 28/24 A2999 RMK AO2 SLP158 T02780244
KOPF 161153Z 00000KT 10SM CLR 26/24 A2997 RMK AO2 SLP150 T02560239 10267 20244 53013
KOPF 161053Z 00000KT 10SM CLR 25/24 A2995 RMK AO2 SLP143 T02500239
KOPF 160953Z AUTO 00000KT 10SM CLR 25/23 A2995 RMK AO2 SLP142 T02500233
KOPF 160853Z AUTO 00000KT 10SM CLR 26/23 A2994 RMK AO2 SLP138 T02560233 56013
KOPF 160753Z AUTO 00000KT 10SM CLR 25/23 A2994 RMK AO2 SLP141 T02500233
KOPF 160653Z AUTO 00000KT 10SM FEW024 25/23 A2996 RMK AO2 SLP146 T02500233